Aviation Digital Data Service (ADDS)

Output produced by TAFs form (2304 UTC 02 March 2015)
found at http://aviationweather.gov/adds/tafs/
 
KGUP 021746Z 0218/0318 21025G35KT P6SM SCT045 BKN070 
     TEMPO 0221/0224 -SHRA BKN025 
     FM030000 23023G32KT 5SM -RASN BKN025 OVC040 
     TEMPO 0301/0305 2SM -SN BR OVC008 
     FM030800 24012KT P6SM VCSH BKN025 
     FM031500 23010KT P6SM VCSH SCT025 SCT070